createdAt,value
2022-08-27T00:00:24.531Z,14.52
2022-08-27T00:03:26.152Z,14.54
2022-08-27T00:06:27.717Z,14.46
2022-08-27T00:09:29.414Z,14.46
2022-08-27T00:12:31.177Z,14.44
2022-08-27T00:15:33.410Z,14.41
2022-08-27T00:18:35.778Z,14.39
2022-08-27T00:21:37.342Z,14.41
2022-08-27T00:24:48.545Z,14.43
2022-08-27T00:27:50.885Z,14.48
2022-08-27T00:30:55.533Z,14.52
2022-08-27T00:33:57.129Z,14.55
2022-08-27T00:37:03.807Z,14.54
2022-08-27T00:40:07.892Z,14.55
2022-08-27T00:43:10.093Z,14.54
2022-08-27T00:46:15.905Z,14.53
2022-08-27T00:49:21.803Z,14.49
2022-08-27T00:52:23.327Z,14.40
2022-08-27T00:55:26.110Z,14.28
2022-08-27T00:58:31.743Z,14.14
2022-08-27T01:01:33.657Z,14.01
2022-08-27T01:04:38.889Z,13.94
2022-08-27T01:07:41.196Z,13.87
2022-08-27T01:10:42.834Z,13.83
2022-08-27T01:13:59.091Z,13.76
2022-08-27T01:17:02.659Z,13.70
2022-08-27T01:20:05.821Z,13.68
2022-08-27T01:23:10.366Z,13.67
2022-08-27T01:26:13.717Z,13.68
2022-08-27T01:29:15.426Z,13.67
2022-08-27T01:32:18.365Z,13.58
2022-08-27T01:35:21.295Z,13.48
2022-08-27T01:38:31.119Z,13.38
2022-08-27T01:41:33.130Z,13.33
2022-08-27T01:44:42.551Z,13.30
2022-08-27T01:47:44.169Z,13.23
2022-08-27T01:50:46.530Z,13.17
2022-08-27T01:53:48.150Z,13.15
2022-08-27T01:56:49.741Z,13.15
2022-08-27T01:59:51.323Z,13.14
2022-08-27T02:02:53.082Z,13.16
2022-08-27T02:05:54.741Z,13.26
2022-08-27T02:08:56.446Z,13.28
2022-08-27T02:11:58.088Z,13.28
2022-08-27T02:14:59.706Z,13.23
2022-08-27T02:18:01.694Z,13.16
2022-08-27T02:21:03.404Z,13.11
2022-08-27T02:24:05.189Z,12.98
2022-08-27T02:27:06.778Z,12.85
2022-08-27T02:30:09.373Z,12.74
2022-08-27T02:33:11.038Z,12.84
2022-08-27T02:36:13.693Z,12.87
2022-08-27T02:39:15.329Z,12.86
2022-08-27T02:42:16.918Z,12.87
2022-08-27T02:45:18.959Z,12.90
2022-08-27T02:48:20.822Z,12.92
2022-08-27T02:51:22.511Z,12.90
2022-08-27T02:54:25.306Z,12.97
2022-08-27T02:57:28.120Z,13.05
2022-08-27T03:00:29.826Z,13.12
2022-08-27T03:03:31.633Z,13.15
2022-08-27T03:06:33.218Z,13.17
2022-08-27T03:09:34.876Z,13.17
2022-08-27T03:12:36.841Z,13.22
2022-08-27T03:15:38.486Z,13.30
2022-08-27T03:18:40.254Z,13.40
2022-08-27T03:21:41.825Z,13.49
2022-08-27T03:24:55.540Z,13.57
2022-08-27T03:27:57.290Z,13.63
2022-08-27T03:31:01.316Z,13.71
2022-08-27T03:34:04.429Z,13.77
2022-08-27T03:37:06.050Z,13.77
2022-08-27T03:40:08.288Z,13.74
2022-08-27T03:43:13.641Z,13.62
2022-08-27T03:46:15.546Z,13.38
2022-08-27T03:49:20.275Z,13.21
2022-08-27T03:52:22.440Z,13.12
2022-08-27T03:55:24.269Z,12.92
2022-08-27T03:58:25.903Z,12.72
2022-08-27T04:01:29.081Z,12.56
2022-08-27T04:04:31.273Z,12.48
2022-08-27T04:07:33.127Z,12.48
2022-08-27T04:10:34.954Z,12.57
2022-08-27T04:13:36.756Z,12.68
2022-08-27T04:16:41.487Z,12.74
2022-08-27T04:19:43.093Z,12.81
2022-08-27T04:22:44.806Z,12.86
2022-08-27T04:25:46.593Z,12.77
2022-08-27T04:28:48.696Z,12.66
2022-08-27T04:31:50.349Z,12.61
2022-08-27T04:34:55.725Z,12.63
2022-08-27T04:37:57.566Z,12.67
2022-08-27T04:41:17.897Z,12.81
2022-08-27T04:44:19.484Z,13.05
2022-08-27T04:47:21.175Z,13.28
2022-08-27T04:50:22.798Z,13.36
2022-08-27T04:53:31.626Z,13.15
2022-08-27T04:56:33.452Z,13.01
2022-08-27T04:59:35.387Z,12.87
2022-08-27T05:02:36.954Z,12.71
2022-08-27T05:05:38.900Z,12.60
2022-08-27T05:08:44.525Z,12.59
2022-08-27T05:11:47.157Z,12.59
2022-08-27T05:14:48.855Z,12.58
2022-08-27T05:17:50.442Z,12.57
2022-08-27T05:20:52.107Z,12.64
2022-08-27T05:23:54.388Z,12.66
2022-08-27T05:26:56.072Z,12.80
2022-08-27T05:29:57.989Z,12.93
2022-08-27T05:32:59.859Z,13.13
2022-08-27T05:36:01.658Z,13.29
2022-08-27T05:39:04.263Z,13.37
2022-08-27T05:42:05.888Z,13.40
2022-08-27T05:45:07.763Z,13.42
2022-08-27T05:48:12.114Z,13.43
2022-08-27T05:51:26.111Z,13.49
2022-08-27T05:54:27.960Z,13.47
2022-08-27T05:57:29.583Z,13.40
2022-08-27T06:00:49.649Z,13.50
2022-08-27T06:03:52.866Z,13.59
2022-08-27T06:06:54.862Z,13.57
2022-08-27T06:09:58.820Z,13.47
2022-08-27T06:13:03.516Z,13.43
2022-08-27T06:16:06.756Z,13.35
2022-08-27T06:19:08.768Z,13.25
2022-08-27T06:22:11.063Z,13.06
2022-08-27T06:25:13.474Z,13.18
2022-08-27T06:28:15.100Z,13.16
2022-08-27T06:31:18.444Z,13.01
2022-08-27T06:34:20.138Z,13.03
2022-08-27T06:37:21.730Z,13.15
2022-08-27T06:40:23.642Z,13.26
2022-08-27T06:43:25.742Z,13.34
2022-08-27T06:46:28.154Z,13.46
2022-08-27T06:49:30.009Z,13.45
2022-08-27T06:52:31.834Z,13.50
2022-08-27T06:55:37.163Z,13.61
2022-08-27T06:58:38.973Z,13.81
2022-08-27T07:01:41.789Z,13.91
2022-08-27T07:04:43.544Z,14.06
2022-08-27T07:07:48.635Z,14.21
2022-08-27T07:10:50.524Z,14.17
2022-08-27T07:13:52.561Z,14.35
2022-08-27T07:16:54.201Z,14.58
2022-08-27T07:19:56.597Z,14.69
2022-08-27T07:22:59.238Z,14.70
2022-08-27T07:26:01.442Z,14.91
2022-08-27T07:29:04.342Z,14.98
2022-08-27T07:32:06.126Z,14.78
2022-08-27T07:35:10.805Z,14.53
2022-08-27T07:38:12.731Z,14.43
2022-08-27T07:41:14.570Z,14.35
2022-08-27T07:44:25.932Z,14.28
2022-08-27T07:47:27.798Z,14.20
2022-08-27T07:50:29.361Z,14.27
2022-08-27T07:53:31.889Z,14.34
2022-08-27T07:56:33.741Z,14.39
2022-08-27T07:59:35.394Z,14.41
2022-08-27T08:02:37.458Z,14.46
2022-08-27T08:05:43.218Z,14.59
2022-08-27T08:08:45.366Z,14.71
2022-08-27T08:11:46.970Z,14.78
2022-08-27T08:14:49.196Z,14.79
2022-08-27T08:17:50.921Z,14.92
2022-08-27T08:20:58.541Z,14.94
2022-08-27T08:24:02.345Z,14.95
2022-08-27T08:27:07.093Z,15.08
2022-08-27T08:30:09.961Z,15.07
2022-08-27T08:33:13.530Z,15.22
2022-08-27T08:36:15.592Z,15.40
2022-08-27T08:39:18.630Z,15.84
2022-08-27T08:42:24.822Z,16.25
2022-08-27T08:45:28.280Z,16.58
2022-08-27T08:48:29.833Z,17.04
2022-08-27T08:51:34.242Z,17.35
2022-08-27T08:54:35.850Z,17.62
2022-08-27T08:57:39.747Z,17.79
2022-08-27T09:00:42.617Z,17.78
2022-08-27T09:03:59.318Z,17.97
2022-08-27T09:07:03.186Z,17.98
2022-08-27T09:10:16.183Z,17.99
2022-08-27T09:13:22.202Z,18.03
2022-08-27T09:16:23.915Z,18.07
2022-08-27T09:19:25.857Z,18.26
2022-08-27T09:22:38.745Z,18.53
2022-08-27T09:25:41.864Z,18.62
2022-08-27T09:29:02.191Z,18.71
2022-08-27T09:32:05.097Z,19.00
2022-08-27T09:35:08.566Z,18.99
2022-08-27T09:38:10.315Z,18.99
2022-08-27T09:41:17.567Z,19.01
2022-08-27T09:44:20.668Z,18.99
2022-08-27T09:47:22.470Z,19.05
2022-08-27T09:50:24.655Z,19.13
2022-08-27T09:53:26.419Z,19.41
2022-08-27T09:56:35.840Z,19.74
2022-08-27T09:59:39.750Z,19.85
2022-08-27T10:02:53.966Z,20.03
2022-08-27T10:05:55.659Z,20.06
2022-08-27T10:08:58.328Z,20.16
2022-08-27T10:12:17.737Z,20.17
2022-08-27T10:15:19.437Z,20.19
2022-08-27T10:18:31.388Z,20.03
2022-08-27T10:21:39.709Z,19.75
2022-08-27T10:24:47.849Z,19.48
2022-08-27T10:27:55.498Z,19.23
2022-08-27T10:31:06.227Z,19.44
2022-08-27T10:34:12.302Z,19.52
2022-08-27T10:37:20.161Z,19.60
2022-08-27T10:40:42.089Z,19.35
2022-08-27T10:43:47.814Z,19.70
2022-08-27T10:47:07.825Z,20.06
2022-08-27T10:50:12.585Z,20.21
2022-08-27T10:53:20.387Z,20.78
2022-08-27T10:56:26.026Z,21.21
2022-08-27T10:59:38.121Z,20.47
2022-08-27T11:02:44.589Z,20.95
2022-08-27T11:05:47.000Z,21.23
2022-08-27T11:08:59.634Z,21.47
2022-08-27T11:12:14.387Z,21.46
2022-08-27T11:15:18.265Z,21.80
2022-08-27T11:18:31.999Z,21.81
2022-08-27T11:21:47.188Z,20.93
2022-08-27T11:24:54.598Z,20.52
2022-08-27T11:27:56.641Z,20.68
2022-08-27T11:31:03.676Z,21.77
2022-08-27T11:34:08.011Z,22.28
2022-08-27T11:37:19.213Z,22.54
2022-08-27T11:40:30.411Z,22.76
2022-08-27T11:43:33.181Z,22.24
2022-08-27T11:46:41.326Z,22.40
2022-08-27T11:49:44.321Z,23.00
2022-08-27T11:53:05.808Z,22.80
2022-08-27T11:56:20.778Z,22.30
2022-08-27T11:59:23.573Z,22.40
2022-08-27T12:02:26.894Z,22.26
2022-08-27T12:05:37.498Z,21.83
2022-08-27T12:08:39.279Z,22.51
2022-08-27T12:11:56.425Z,23.28
2022-08-27T12:15:04.605Z,23.96
2022-08-27T12:18:29.477Z,24.44
2022-08-27T12:21:43.935Z,24.13
2022-08-27T12:24:51.990Z,22.55
2022-08-27T12:27:58.636Z,23.19
2022-08-27T12:31:00.226Z,22.60
2022-08-27T12:34:01.805Z,23.38
2022-08-27T12:37:03.673Z,23.88
2022-08-27T12:40:33.499Z,24.08
2022-08-27T12:43:35.741Z,24.26
2022-08-27T12:46:57.653Z,25.25
2022-08-27T12:49:59.936Z,24.77
2022-08-27T12:53:05.141Z,24.08
2022-08-27T12:56:09.882Z,23.42
2022-08-27T12:59:14.228Z,23.12
2022-08-27T13:02:15.855Z,24.06
2022-08-27T13:05:21.453Z,24.26
2022-08-27T13:08:30.618Z,23.75
2022-08-27T13:11:33.550Z,23.75
2022-08-27T13:14:39.784Z,23.53
2022-08-27T13:17:41.940Z,23.11
2022-08-27T13:20:43.558Z,23.71
2022-08-27T13:23:56.386Z,23.64
2022-08-27T13:26:58.414Z,23.40
2022-08-27T13:30:07.165Z,22.77
2022-08-27T13:33:09.673Z,22.48
2022-08-27T13:36:11.543Z,22.34
2022-08-27T13:39:13.186Z,22.30
2022-08-27T13:42:14.950Z,22.14
2022-08-27T13:45:21.821Z,21.99
2022-08-27T13:48:24.326Z,22.75
2022-08-27T13:51:33.129Z,22.75
2022-08-27T13:54:34.816Z,22.57
2022-08-27T13:57:41.458Z,22.04
2022-08-27T14:00:43.067Z,21.91
2022-08-27T14:03:55.780Z,22.09
2022-08-27T14:06:57.353Z,22.18
2022-08-27T14:10:03.708Z,22.90
2022-08-27T14:13:19.442Z,23.04
2022-08-27T14:16:26.088Z,23.31
2022-08-27T14:19:33.329Z,22.83
2022-08-27T14:22:37.851Z,21.95
2022-08-27T14:25:40.092Z,21.69
2022-08-27T14:28:42.674Z,21.32
2022-08-27T14:31:44.831Z,20.82
2022-08-27T14:34:46.585Z,20.66
2022-08-27T14:37:58.642Z,20.70
2022-08-27T14:41:00.304Z,20.69
2022-08-27T14:44:01.953Z,20.74
2022-08-27T14:47:04.157Z,20.89
2022-08-27T14:50:12.254Z,21.21
2022-08-27T14:53:13.815Z,21.19
2022-08-27T14:56:16.067Z,22.39
2022-08-27T14:59:17.602Z,23.30
2022-08-27T15:02:21.017Z,22.71
2022-08-27T15:05:24.802Z,22.15
2022-08-27T15:08:29.411Z,22.00
2022-08-27T15:11:34.826Z,21.86
2022-08-27T15:14:36.978Z,21.84
2022-08-27T15:17:38.571Z,22.83
2022-08-27T15:20:40.965Z,23.44
2022-08-27T15:23:42.597Z,23.21
2022-08-27T15:26:44.153Z,22.56
2022-08-27T15:29:47.294Z,22.47
2022-08-27T15:32:49.251Z,22.86
2022-08-27T15:35:50.914Z,22.97
2022-08-27T15:38:54.251Z,23.40
2022-08-27T15:42:06.384Z,23.16
2022-08-27T15:45:08.790Z,23.18
2022-08-27T15:48:10.814Z,23.45
2022-08-27T15:51:13.591Z,23.52
2022-08-27T15:54:15.189Z,23.74
2022-08-27T15:57:17.805Z,23.72
2022-08-27T16:00:20.250Z,23.22
2022-08-27T16:03:21.825Z,23.61
2022-08-27T16:06:31.891Z,23.37
2022-08-27T16:09:33.531Z,22.98
2022-08-27T16:12:35.935Z,22.97
2022-08-27T16:15:39.543Z,22.95
2022-08-27T16:18:41.297Z,22.91
2022-08-27T16:21:43.107Z,22.53
2022-08-27T16:24:44.773Z,22.80
2022-08-27T16:27:46.899Z,22.37
2022-08-27T16:30:49.160Z,21.94
2022-08-27T16:33:50.746Z,21.93
2022-08-27T16:36:52.435Z,21.93
2022-08-27T16:39:54.103Z,21.52
2022-08-27T16:42:55.781Z,21.36
2022-08-27T16:45:58.602Z,21.20
2022-08-27T16:49:19.150Z,20.97
2022-08-27T16:52:23.387Z,20.79
2022-08-27T16:55:24.992Z,20.61
2022-08-27T16:58:27.580Z,20.39
2022-08-27T17:01:29.345Z,20.23
2022-08-27T17:04:36.683Z,20.18
2022-08-27T17:07:39.761Z,20.23
2022-08-27T17:10:46.445Z,20.17
2022-08-27T17:13:51.577Z,20.04
2022-08-27T17:16:54.147Z,19.89
2022-08-27T17:19:56.362Z,19.76
2022-08-27T17:22:58.144Z,19.55
2022-08-27T17:26:00.039Z,19.38
2022-08-27T17:29:01.646Z,19.27
2022-08-27T17:32:04.360Z,19.23
2022-08-27T17:35:06.969Z,19.44
2022-08-27T17:38:09.746Z,20.16
2022-08-27T17:41:13.065Z,20.75
2022-08-27T17:44:44.098Z,20.09
2022-08-27T17:47:45.712Z,19.44
2022-08-27T17:50:47.549Z,19.07
2022-08-27T17:53:50.518Z,18.74
2022-08-27T17:56:52.124Z,18.49
2022-08-27T17:59:54.721Z,18.35
2022-08-27T18:02:56.370Z,18.19
2022-08-27T18:05:57.957Z,18.13
2022-08-27T18:08:59.644Z,18.05
2022-08-27T18:12:01.257Z,17.99
2022-08-27T18:15:02.904Z,17.90
2022-08-27T18:18:04.830Z,17.83
2022-08-27T18:21:07.897Z,17.82
2022-08-27T18:24:11.597Z,17.70
2022-08-27T18:27:13.230Z,17.59
2022-08-27T18:30:14.891Z,17.46
2022-08-27T18:33:16.557Z,17.42
2022-08-27T18:36:18.166Z,17.39
2022-08-27T18:39:20.068Z,17.33
2022-08-27T18:42:21.666Z,17.29
2022-08-27T18:45:24.629Z,17.19
2022-08-27T18:48:27.247Z,17.13
2022-08-27T18:51:35.559Z,17.09
2022-08-27T18:54:38.271Z,17.06
2022-08-27T18:57:40.013Z,17.04
2022-08-27T19:00:43.041Z,17.05
2022-08-27T19:03:46.242Z,17.01
2022-08-27T19:06:47.898Z,17.02
2022-08-27T19:09:49.514Z,17.05
2022-08-27T19:12:51.100Z,17.04
2022-08-27T19:15:54.049Z,17.04
2022-08-27T19:18:55.698Z,17.02
2022-08-27T19:21:59.368Z,17.02
2022-08-27T19:25:07.776Z,16.99
2022-08-27T19:28:09.420Z,16.99
2022-08-27T19:31:11.351Z,16.96
2022-08-27T19:34:13.005Z,16.94
2022-08-27T19:37:19.703Z,16.93
2022-08-27T19:40:22.278Z,16.92
2022-08-27T19:43:24.076Z,16.93
2022-08-27T19:46:26.437Z,16.84
2022-08-27T19:49:28.122Z,16.78
2022-08-27T19:52:29.787Z,16.78
2022-08-27T19:55:31.371Z,16.77
2022-08-27T19:58:33.323Z,16.85
2022-08-27T20:01:35.166Z,16.97
2022-08-27T20:04:51.488Z,17.05
2022-08-27T20:07:59.923Z,17.12
2022-08-27T20:11:01.599Z,17.20
2022-08-27T20:14:03.187Z,17.21
2022-08-27T20:17:04.790Z,17.20
2022-08-27T20:20:08.897Z,17.15
2022-08-27T20:23:10.504Z,17.08
2022-08-27T20:26:12.111Z,16.99
2022-08-27T20:29:15.057Z,16.93
2022-08-27T20:32:35.406Z,16.86
2022-08-27T20:35:38.721Z,17.01
2022-08-27T20:38:40.662Z,17.09
2022-08-27T20:41:42.326Z,17.11
2022-08-27T20:44:46.701Z,17.10
2022-08-27T20:47:48.737Z,17.07
2022-08-27T20:50:50.373Z,16.98
2022-08-27T20:53:52.275Z,16.93
2022-08-27T20:56:53.866Z,16.91
2022-08-27T21:00:13.841Z,16.88
2022-08-27T21:03:15.526Z,16.81
2022-08-27T21:06:17.270Z,16.76
2022-08-27T21:09:19.062Z,16.58
2022-08-27T21:12:22.805Z,16.41
2022-08-27T21:15:25.150Z,16.25
2022-08-27T21:18:29.773Z,16.13
2022-08-27T21:21:31.732Z,16.02
2022-08-27T21:24:33.942Z,15.97
2022-08-27T21:27:35.621Z,15.94
2022-08-27T21:30:37.439Z,15.91
2022-08-27T21:33:39.585Z,15.89
2022-08-27T21:36:41.381Z,15.82
2022-08-27T21:39:43.013Z,15.78
2022-08-27T21:42:44.595Z,15.69
2022-08-27T21:45:46.292Z,15.63
2022-08-27T21:48:48.688Z,15.58
2022-08-27T21:52:03.268Z,15.54
2022-08-27T21:55:05.362Z,15.48
2022-08-27T21:58:06.998Z,15.43
2022-08-27T22:01:08.721Z,15.39
2022-08-27T22:04:10.470Z,15.31
2022-08-27T22:07:12.103Z,15.21
2022-08-27T22:10:13.703Z,15.08
2022-08-27T22:13:15.346Z,14.99
2022-08-27T22:16:17.068Z,14.92
2022-08-27T22:19:18.790Z,14.91
2022-08-27T22:22:20.387Z,14.93
2022-08-27T22:25:22.006Z,14.92
2022-08-27T22:28:24.029Z,14.90
2022-08-27T22:31:25.817Z,14.85
2022-08-27T22:34:27.473Z,14.83
2022-08-27T22:37:30.103Z,14.82
2022-08-27T22:40:32.676Z,14.81
2022-08-27T22:43:35.005Z,14.80
2022-08-27T22:46:36.638Z,14.78
2022-08-27T22:49:38.348Z,14.72
2022-08-27T22:52:42.290Z,14.64
2022-08-27T22:55:47.991Z,14.59
2022-08-27T22:58:51.749Z,14.55
2022-08-27T23:01:56.759Z,14.50
2022-08-27T23:04:58.391Z,14.49
2022-08-27T23:08:00.476Z,14.47
2022-08-27T23:11:03.437Z,14.38
2022-08-27T23:14:05.026Z,14.26
2022-08-27T23:17:06.669Z,14.16
2022-08-27T23:20:09.085Z,14.14
2022-08-27T23:23:10.893Z,14.13
2022-08-27T23:26:31.101Z,14.08
2022-08-27T23:29:32.736Z,14.09
2022-08-27T23:32:34.592Z,14.07
2022-08-27T23:35:36.341Z,14.04
2022-08-27T23:38:37.950Z,13.96
2022-08-27T23:41:39.846Z,13.92
2022-08-27T23:44:41.709Z,13.84
2022-08-27T23:47:43.606Z,13.81
2022-08-27T23:50:45.374Z,13.80
2022-08-27T23:53:47.019Z,13.82
2022-08-27T23:56:49.418Z,13.79
2022-08-27T23:59:50.974Z,13.76
